sensor_id;sensor_type;location;lat;lon;timestamp;P1;durP1;ratioP1;P2;durP2;ratioP2
51660;SDS011;37741;49.748;8.490;2024-03-08T00:00:26;17.70;;;12.48;;
51660;SDS011;37741;49.748;8.490;2024-03-08T00:02:52;16.20;;;12.65;;
51660;SDS011;37741;49.748;8.490;2024-03-08T00:05:19;19.90;;;13.40;;
51660;SDS011;37741;49.748;8.490;2024-03-08T00:07:44;17.08;;;12.68;;
51660;SDS011;37741;49.748;8.490;2024-03-08T00:10:11;16.50;;;13.00;;
51660;SDS011;37741;49.748;8.490;2024-03-08T00:12:41;16.70;;;12.27;;
51660;SDS011;37741;49.748;8.490;2024-03-08T00:15:11;17.02;;;12.73;;
51660;SDS011;37741;49.748;8.490;2024-03-08T00:17:39;18.02;;;13.70;;
51660;SDS011;37741;49.748;8.490;2024-03-08T00:20:05;15.98;;;12.77;;
51660;SDS011;37741;49.748;8.490;2024-03-08T00:22:34;18.73;;;12.50;;
51660;SDS011;37741;49.748;8.490;2024-03-08T00:25:00;15.52;;;12.65;;
51660;SDS011;37741;49.748;8.490;2024-03-08T00:27:27;19.50;;;13.55;;
51660;SDS011;37741;49.748;8.490;2024-03-08T00:29:56;17.75;;;13.05;;
51660;SDS011;37741;49.748;8.490;2024-03-08T00:32:25;17.60;;;13.15;;
51660;SDS011;37741;49.748;8.490;2024-03-08T00:34:52;18.67;;;13.88;;
51660;SDS011;37741;49.748;8.490;2024-03-08T00:37:19;16.50;;;12.98;;
51660;SDS011;37741;49.748;8.490;2024-03-08T00:39:46;16.60;;;13.05;;
51660;SDS011;37741;49.748;8.490;2024-03-08T00:42:15;15.95;;;13.07;;
51660;SDS011;37741;49.748;8.490;2024-03-08T00:44:42;21.15;;;13.88;;
51660;SDS011;37741;49.748;8.490;2024-03-08T00:47:07;16.80;;;12.82;;
51660;SDS011;37741;49.748;8.490;2024-03-08T00:49:33;15.38;;;12.35;;
51660;SDS011;37741;49.748;8.490;2024-03-08T00:51:59;17.13;;;13.93;;
51660;SDS011;37741;49.748;8.490;2024-03-08T00:54:24;16.73;;;12.48;;
51660;SDS011;37741;49.748;8.490;2024-03-08T00:56:50;18.00;;;13.35;;
51660;SDS011;37741;49.748;8.490;2024-03-08T00:59:16;15.68;;;12.93;;
51660;SDS011;37741;49.748;8.490;2024-03-08T01:01:41;15.88;;;13.48;;
51660;SDS011;37741;49.748;8.490;2024-03-08T01:04:08;19.02;;;14.20;;
51660;SDS011;37741;49.748;8.490;2024-03-08T01:06:34;16.48;;;12.85;;
51660;SDS011;37741;49.748;8.490;2024-03-08T01:09:00;19.05;;;14.23;;
51660;SDS011;37741;49.748;8.490;2024-03-08T01:11:26;18.30;;;13.32;;
51660;SDS011;37741;49.748;8.490;2024-03-08T01:13:53;17.42;;;13.35;;
51660;SDS011;37741;49.748;8.490;2024-03-08T01:16:19;16.85;;;12.85;;
51660;SDS011;37741;49.748;8.490;2024-03-08T01:18:46;16.10;;;13.30;;
51660;SDS011;37741;49.748;8.490;2024-03-08T01:21:12;19.45;;;14.30;;
51660;SDS011;37741;49.748;8.490;2024-03-08T01:23:38;20.10;;;13.90;;
51660;SDS011;37741;49.748;8.490;2024-03-08T01:26:03;21.67;;;13.75;;
51660;SDS011;37741;49.748;8.490;2024-03-08T01:28:29;18.00;;;13.43;;
51660;SDS011;37741;49.748;8.490;2024-03-08T01:30:55;17.25;;;13.50;;
51660;SDS011;37741;49.748;8.490;2024-03-08T01:33:24;20.63;;;15.02;;
51660;SDS011;37741;49.748;8.490;2024-03-08T01:35:51;17.25;;;14.18;;
51660;SDS011;37741;49.748;8.490;2024-03-08T01:38:17;17.95;;;13.95;;
51660;SDS011;37741;49.748;8.490;2024-03-08T01:40:43;17.63;;;13.75;;
51660;SDS011;37741;49.748;8.490;2024-03-08T01:45:50;17.13;;;13.55;;
51660;SDS011;37741;49.748;8.490;2024-03-08T01:48:16;15.68;;;12.65;;
51660;SDS011;37741;49.748;8.490;2024-03-08T01:50:42;15.73;;;12.93;;
51660;SDS011;37741;49.748;8.490;2024-03-08T01:53:09;16.95;;;12.65;;
51660;SDS011;37741;49.748;8.490;2024-03-08T01:55:36;16.88;;;13.57;;
51660;SDS011;37741;49.748;8.490;2024-03-08T01:58:07;18.65;;;12.95;;
51660;SDS011;37741;49.748;8.490;2024-03-08T02:00:35;18.25;;;13.77;;
51660;SDS011;37741;49.748;8.490;2024-03-08T02:03:05;18.35;;;13.48;;
51660;SDS011;37741;49.748;8.490;2024-03-08T02:05:30;18.05;;;14.13;;
51660;SDS011;37741;49.748;8.490;2024-03-08T02:07:57;15.88;;;12.30;;
51660;SDS011;37741;49.748;8.490;2024-03-08T02:10:22;18.55;;;13.98;;
51660;SDS011;37741;49.748;8.490;2024-03-08T02:12:48;17.60;;;13.57;;
51660;SDS011;37741;49.748;8.490;2024-03-08T02:15:14;18.02;;;13.45;;
51660;SDS011;37741;49.748;8.490;2024-03-08T02:17:40;16.63;;;13.57;;
51660;SDS011;37741;49.748;8.490;2024-03-08T02:20:06;18.88;;;13.13;;
51660;SDS011;37741;49.748;8.490;2024-03-08T02:22:34;16.50;;;13.55;;
51660;SDS011;37741;49.748;8.490;2024-03-08T02:24:59;17.75;;;12.90;;
51660;SDS011;37741;49.748;8.490;2024-03-08T02:27:27;16.42;;;13.00;;
51660;SDS011;37741;49.748;8.490;2024-03-08T02:29:54;18.23;;;12.90;;
51660;SDS011;37741;49.748;8.490;2024-03-08T02:32:21;16.27;;;13.05;;
51660;SDS011;37741;49.748;8.490;2024-03-08T02:34:48;20.10;;;13.45;;
51660;SDS011;37741;49.748;8.490;2024-03-08T02:37:14;17.42;;;13.25;;
51660;SDS011;37741;49.748;8.490;2024-03-08T02:39:41;18.05;;;13.60;;
51660;SDS011;37741;49.748;8.490;2024-03-08T02:42:06;19.45;;;14.10;;
51660;SDS011;37741;49.748;8.490;2024-03-08T02:44:32;15.52;;;12.32;;
51660;SDS011;37741;49.748;8.490;2024-03-08T02:47:01;18.05;;;13.32;;
51660;SDS011;37741;49.748;8.490;2024-03-08T02:49:27;18.77;;;13.93;;
51660;SDS011;37741;49.748;8.490;2024-03-08T02:51:53;16.63;;;13.25;;
51660;SDS011;37741;49.748;8.490;2024-03-08T02:54:19;16.48;;;13.20;;
51660;SDS011;37741;49.748;8.490;2024-03-08T02:56:45;17.95;;;12.98;;
51660;SDS011;37741;49.748;8.490;2024-03-08T02:59:12;16.75;;;13.18;;
51660;SDS011;37741;49.748;8.490;2024-03-08T03:01:38;17.40;;;14.00;;
51660;SDS011;37741;49.748;8.490;2024-03-08T03:04:04;16.63;;;13.25;;
51660;SDS011;37741;49.748;8.490;2024-03-08T03:06:30;16.50;;;12.43;;
51660;SDS011;37741;49.748;8.490;2024-03-08T03:08:56;19.27;;;14.35;;
51660;SDS011;37741;49.748;8.490;2024-03-08T03:11:22;17.13;;;12.88;;
51660;SDS011;37741;49.748;8.490;2024-03-08T03:13:48;17.17;;;13.55;;
51660;SDS011;37741;49.748;8.490;2024-03-08T03:16:20;15.98;;;12.25;;
51660;SDS011;37741;49.748;8.490;2024-03-08T03:18:45;17.70;;;12.98;;
51660;SDS011;37741;49.748;8.490;2024-03-08T03:21:12;16.33;;;12.80;;
51660;SDS011;37741;49.748;8.490;2024-03-08T03:23:40;17.08;;;13.48;;
51660;SDS011;37741;49.748;8.490;2024-03-08T03:26:07;17.48;;;12.77;;
51660;SDS011;37741;49.748;8.490;2024-03-08T03:28:33;18.20;;;14.20;;
51660;SDS011;37741;49.748;8.490;2024-03-08T03:30:59;18.45;;;13.32;;
51660;SDS011;37741;49.748;8.490;2024-03-08T03:33:26;18.50;;;14.20;;
51660;SDS011;37741;49.748;8.490;2024-03-08T03:35:52;17.23;;;12.68;;
51660;SDS011;37741;49.748;8.490;2024-03-08T03:38:17;18.80;;;14.15;;
51660;SDS011;37741;49.748;8.490;2024-03-08T03:40:44;19.25;;;13.95;;
51660;SDS011;37741;49.748;8.490;2024-03-08T03:43:11;18.67;;;13.90;;
51660;SDS011;37741;49.748;8.490;2024-03-08T03:45:36;18.90;;;14.02;;
51660;SDS011;37741;49.748;8.490;2024-03-08T03:48:05;18.35;;;14.27;;
51660;SDS011;37741;49.748;8.490;2024-03-08T03:50:34;17.80;;;13.52;;
51660;SDS011;37741;49.748;8.490;2024-03-08T03:52:59;19.98;;;13.70;;
51660;SDS011;37741;49.748;8.490;2024-03-08T03:55:25;26.15;;;14.48;;
51660;SDS011;37741;49.748;8.490;2024-03-08T03:57:52;19.67;;;13.75;;
51660;SDS011;37741;49.748;8.490;2024-03-08T04:00:17;19.20;;;14.45;;
51660;SDS011;37741;49.748;8.490;2024-03-08T04:02:43;17.80;;;13.68;;
51660;SDS011;37741;49.748;8.490;2024-03-08T04:05:09;19.02;;;14.15;;
51660;SDS011;37741;49.748;8.490;2024-03-08T04:07:37;17.35;;;13.40;;
51660;SDS011;37741;49.748;8.490;2024-03-08T04:10:03;24.17;;;13.82;;
51660;SDS011;37741;49.748;8.490;2024-03-08T04:12:34;17.95;;;13.60;;
51660;SDS011;37741;49.748;8.490;2024-03-08T04:14:59;20.08;;;14.00;;
51660;SDS011;37741;49.748;8.490;2024-03-08T04:17:25;20.75;;;13.50;;
51660;SDS011;37741;49.748;8.490;2024-03-08T04:19:51;19.00;;;13.95;;
51660;SDS011;37741;49.748;8.490;2024-03-08T04:22:17;18.48;;;14.25;;
51660;SDS011;37741;49.748;8.490;2024-03-08T04:24:44;17.17;;;13.80;;
51660;SDS011;37741;49.748;8.490;2024-03-08T04:27:10;17.58;;;13.98;;
51660;SDS011;37741;49.748;8.490;2024-03-08T04:29:35;19.48;;;13.35;;
51660;SDS011;37741;49.748;8.490;2024-03-08T04:32:04;19.30;;;14.07;;
51660;SDS011;37741;49.748;8.490;2024-03-08T04:34:31;22.10;;;15.68;;
51660;SDS011;37741;49.748;8.490;2024-03-08T04:36:57;20.10;;;13.43;;
51660;SDS011;37741;49.748;8.490;2024-03-08T04:39:23;22.52;;;16.00;;
51660;SDS011;37741;49.748;8.490;2024-03-08T04:41:49;18.40;;;15.05;;
51660;SDS011;37741;49.748;8.490;2024-03-08T04:44:15;18.67;;;14.65;;
51660;SDS011;37741;49.748;8.490;2024-03-08T04:46:42;21.27;;;14.65;;
51660;SDS011;37741;49.748;8.490;2024-03-08T04:49:09;23.90;;;15.45;;
51660;SDS011;37741;49.748;8.490;2024-03-08T04:51:36;19.48;;;14.07;;
51660;SDS011;37741;49.748;8.490;2024-03-08T04:54:02;19.70;;;15.05;;
51660;SDS011;37741;49.748;8.490;2024-03-08T04:56:29;21.58;;;16.35;;
51660;SDS011;37741;49.748;8.490;2024-03-08T04:58:55;20.45;;;14.60;;
51660;SDS011;37741;49.748;8.490;2024-03-08T05:01:21;21.60;;;14.73;;
51660;SDS011;37741;49.748;8.490;2024-03-08T05:03:46;22.45;;;16.27;;
51660;SDS011;37741;49.748;8.490;2024-03-08T05:06:15;21.80;;;15.57;;
51660;SDS011;37741;49.748;8.490;2024-03-08T05:08:41;22.13;;;15.20;;
51660;SDS011;37741;49.748;8.490;2024-03-08T05:11:06;20.88;;;15.88;;
51660;SDS011;37741;49.748;8.490;2024-03-08T05:13:32;18.70;;;14.65;;
51660;SDS011;37741;49.748;8.490;2024-03-08T05:15:59;22.98;;;15.15;;
51660;SDS011;37741;49.748;8.490;2024-03-08T05:18:25;21.48;;;14.82;;
51660;SDS011;37741;49.748;8.490;2024-03-08T05:20:53;21.98;;;16.13;;
51660;SDS011;37741;49.748;8.490;2024-03-08T05:23:18;21.20;;;15.45;;
51660;SDS011;37741;49.748;8.490;2024-03-08T05:25:45;22.33;;;15.75;;
51660;SDS011;37741;49.748;8.490;2024-03-08T05:28:13;25.50;;;16.13;;
51660;SDS011;37741;49.748;8.490;2024-03-08T05:30:39;20.73;;;16.35;;
51660;SDS011;37741;49.748;8.490;2024-03-08T05:33:04;21.30;;;15.55;;
51660;SDS011;37741;49.748;8.490;2024-03-08T05:35:30;21.45;;;15.50;;
51660;SDS011;37741;49.748;8.490;2024-03-08T05:37:57;21.75;;;15.25;;
51660;SDS011;37741;49.748;8.490;2024-03-08T05:40:23;24.05;;;15.68;;
51660;SDS011;37741;49.748;8.490;2024-03-08T05:42:49;21.38;;;15.63;;
51660;SDS011;37741;49.748;8.490;2024-03-08T05:45:14;21.50;;;16.00;;
51660;SDS011;37741;49.748;8.490;2024-03-08T05:47:40;21.70;;;15.07;;
51660;SDS011;37741;49.748;8.490;2024-03-08T05:50:06;24.23;;;17.02;;
51660;SDS011;37741;49.748;8.490;2024-03-08T05:52:35;22.13;;;16.83;;
51660;SDS011;37741;49.748;8.490;2024-03-08T05:55:01;22.02;;;16.00;;
51660;SDS011;37741;49.748;8.490;2024-03-08T05:57:27;21.48;;;15.30;;
51660;SDS011;37741;49.748;8.490;2024-03-08T05:59:53;25.88;;;16.65;;
51660;SDS011;37741;49.748;8.490;2024-03-08T06:02:18;20.92;;;15.15;;
51660;SDS011;37741;49.748;8.490;2024-03-08T06:04:45;21.67;;;15.52;;
51660;SDS011;37741;49.748;8.490;2024-03-08T06:07:12;19.42;;;15.23;;
51660;SDS011;37741;49.748;8.490;2024-03-08T06:09:38;20.70;;;15.85;;
51660;SDS011;37741;49.748;8.490;2024-03-08T06:12:03;23.25;;;17.30;;
51660;SDS011;37741;49.748;8.490;2024-03-08T06:14:31;22.10;;;15.20;;
51660;SDS011;37741;49.748;8.490;2024-03-08T06:16:57;22.58;;;17.00;;
51660;SDS011;37741;49.748;8.490;2024-03-08T06:19:23;22.23;;;16.10;;
51660;SDS011;37741;49.748;8.490;2024-03-08T06:21:48;22.10;;;16.52;;
51660;SDS011;37741;49.748;8.490;2024-03-08T06:24:14;25.30;;;16.98;;
51660;SDS011;37741;49.748;8.490;2024-03-08T06:26:42;21.90;;;15.40;;
51660;SDS011;37741;49.748;8.490;2024-03-08T06:29:08;20.80;;;15.63;;
51660;SDS011;37741;49.748;8.490;2024-03-08T06:31:34;22.83;;;15.35;;
51660;SDS011;37741;49.748;8.490;2024-03-08T06:33:59;22.83;;;16.42;;
51660;SDS011;37741;49.748;8.490;2024-03-08T06:36:25;24.35;;;16.50;;
51660;SDS011;37741;49.748;8.490;2024-03-08T06:38:51;23.25;;;16.88;;
51660;SDS011;37741;49.748;8.490;2024-03-08T06:41:16;20.85;;;15.65;;
51660;SDS011;37741;49.748;8.490;2024-03-08T06:43:42;22.00;;;16.60;;
51660;SDS011;37741;49.748;8.490;2024-03-08T06:46:09;23.98;;;15.98;;
51660;SDS011;37741;49.748;8.490;2024-03-08T06:48:37;20.42;;;15.38;;
51660;SDS011;37741;49.748;8.490;2024-03-08T06:51:03;25.23;;;16.65;;
51660;SDS011;37741;49.748;8.490;2024-03-08T06:53:30;21.90;;;16.45;;
51660;SDS011;37741;49.748;8.490;2024-03-08T06:55:56;22.02;;;16.17;;
51660;SDS011;37741;49.748;8.490;2024-03-08T06:58:22;22.60;;;16.60;;
51660;SDS011;37741;49.748;8.490;2024-03-08T07:00:48;24.25;;;17.25;;
51660;SDS011;37741;49.748;8.490;2024-03-08T07:03:17;25.15;;;17.63;;
51660;SDS011;37741;49.748;8.490;2024-03-08T07:05:43;23.63;;;16.02;;
51660;SDS011;37741;49.748;8.490;2024-03-08T07:08:09;23.10;;;16.52;;
51660;SDS011;37741;49.748;8.490;2024-03-08T07:10:34;21.38;;;16.60;;
51660;SDS011;37741;49.748;8.490;2024-03-08T07:13:02;25.33;;;17.42;;
51660;SDS011;37741;49.748;8.490;2024-03-08T07:15:28;24.63;;;17.67;;
51660;SDS011;37741;49.748;8.490;2024-03-08T07:17:54;22.73;;;16.52;;
51660;SDS011;37741;49.748;8.490;2024-03-08T07:20:20;20.75;;;15.52;;
51660;SDS011;37741;49.748;8.490;2024-03-08T07:22:46;23.25;;;16.40;;
51660;SDS011;37741;49.748;8.490;2024-03-08T07:25:12;22.98;;;16.13;;
51660;SDS011;37741;49.748;8.490;2024-03-08T07:27:54;22.92;;;15.88;;
51660;SDS011;37741;49.748;8.490;2024-03-08T07:30:21;21.75;;;15.73;;
51660;SDS011;37741;49.748;8.490;2024-03-08T07:33:06;23.77;;;16.95;;
51660;SDS011;37741;49.748;8.490;2024-03-08T07:35:32;20.15;;;15.48;;
51660;SDS011;37741;49.748;8.490;2024-03-08T07:38:02;20.58;;;15.45;;
51660;SDS011;37741;49.748;8.490;2024-03-08T07:40:29;21.90;;;15.90;;
51660;SDS011;37741;49.748;8.490;2024-03-08T07:42:55;24.75;;;17.98;;
51660;SDS011;37741;49.748;8.490;2024-03-08T07:45:21;21.13;;;15.23;;
51660;SDS011;37741;49.748;8.490;2024-03-08T07:47:47;20.27;;;15.45;;
51660;SDS011;37741;49.748;8.490;2024-03-08T07:50:12;21.17;;;15.60;;
51660;SDS011;37741;49.748;8.490;2024-03-08T07:52:41;21.45;;;15.85;;
51660;SDS011;37741;49.748;8.490;2024-03-08T07:55:07;19.98;;;14.55;;
51660;SDS011;37741;49.748;8.490;2024-03-08T07:57:35;22.33;;;15.88;;
51660;SDS011;37741;49.748;8.490;2024-03-08T08:00:03;21.35;;;14.95;;
51660;SDS011;37741;49.748;8.490;2024-03-08T08:02:32;21.35;;;15.50;;
51660;SDS011;37741;49.748;8.490;2024-03-08T08:04:58;21.35;;;15.70;;
51660;SDS011;37741;49.748;8.490;2024-03-08T08:07:24;21.25;;;14.57;;
51660;SDS011;37741;49.748;8.490;2024-03-08T08:09:49;21.92;;;15.82;;
51660;SDS011;37741;49.748;8.490;2024-03-08T08:12:15;20.38;;;14.73;;
51660;SDS011;37741;49.748;8.490;2024-03-08T08:14:41;24.45;;;15.25;;
51660;SDS011;37741;49.748;8.490;2024-03-08T08:17:07;18.50;;;14.55;;
51660;SDS011;37741;49.748;8.490;2024-03-08T08:19:33;21.23;;;15.25;;
51660;SDS011;37741;49.748;8.490;2024-03-08T08:22:00;21.60;;;15.68;;
51660;SDS011;37741;49.748;8.490;2024-03-08T08:24:27;20.77;;;14.73;;
51660;SDS011;37741;49.748;8.490;2024-03-08T08:26:53;19.38;;;14.57;;
51660;SDS011;37741;49.748;8.490;2024-03-08T08:29:18;19.60;;;14.43;;
51660;SDS011;37741;49.748;8.490;2024-03-08T08:31:45;19.35;;;14.50;;
51660;SDS011;37741;49.748;8.490;2024-03-08T08:34:11;18.35;;;13.27;;
51660;SDS011;37741;49.748;8.490;2024-03-08T08:36:38;19.92;;;13.60;;
51660;SDS011;37741;49.748;8.490;2024-03-08T08:39:04;19.65;;;14.32;;
51660;SDS011;37741;49.748;8.490;2024-03-08T08:41:36;18.38;;;13.35;;
51660;SDS011;37741;49.748;8.490;2024-03-08T08:44:02;19.73;;;13.88;;
51660;SDS011;37741;49.748;8.490;2024-03-08T08:46:27;19.05;;;13.40;;
51660;SDS011;37741;49.748;8.490;2024-03-08T08:48:53;18.50;;;13.55;;
51660;SDS011;37741;49.748;8.490;2024-03-08T08:51:19;20.17;;;14.93;;
51660;SDS011;37741;49.748;8.490;2024-03-08T08:53:45;18.45;;;13.70;;
51660;SDS011;37741;49.748;8.490;2024-03-08T08:56:12;20.65;;;14.23;;
51660;SDS011;37741;49.748;8.490;2024-03-08T08:58:39;18.38;;;13.73;;
51660;SDS011;37741;49.748;8.490;2024-03-08T09:01:06;19.02;;;14.45;;
51660;SDS011;37741;49.748;8.490;2024-03-08T09:03:32;16.75;;;12.63;;
51660;SDS011;37741;49.748;8.490;2024-03-08T09:06:00;20.73;;;13.82;;
51660;SDS011;37741;49.748;8.490;2024-03-08T09:08:27;20.95;;;14.00;;
51660;SDS011;37741;49.748;8.490;2024-03-08T09:10:53;18.08;;;13.35;;
51660;SDS011;37741;49.748;8.490;2024-03-08T09:13:19;17.15;;;12.07;;
51660;SDS011;37741;49.748;8.490;2024-03-08T09:15:45;18.52;;;13.20;;
51660;SDS011;37741;49.748;8.490;2024-03-08T09:18:10;19.63;;;13.30;;
51660;SDS011;37741;49.748;8.490;2024-03-08T09:20:36;17.00;;;13.23;;
51660;SDS011;37741;49.748;8.490;2024-03-08T09:23:02;17.13;;;12.20;;
51660;SDS011;37741;49.748;8.490;2024-03-08T09:25:29;19.05;;;13.52;;
51660;SDS011;37741;49.748;8.490;2024-03-08T09:27:54;17.40;;;13.18;;
51660;SDS011;37741;49.748;8.490;2024-03-08T09:30:20;18.02;;;13.35;;
51660;SDS011;37741;49.748;8.490;2024-03-08T09:32:46;18.85;;;13.63;;
51660;SDS011;37741;49.748;8.490;2024-03-08T09:35:12;20.60;;;13.85;;
51660;SDS011;37741;49.748;8.490;2024-03-08T09:37:38;20.80;;;13.98;;
51660;SDS011;37741;49.748;8.490;2024-03-08T09:40:04;17.67;;;14.00;;
51660;SDS011;37741;49.748;8.490;2024-03-08T09:42:34;19.33;;;13.00;;
51660;SDS011;37741;49.748;8.490;2024-03-08T09:45:05;17.58;;;13.15;;
51660;SDS011;37741;49.748;8.490;2024-03-08T09:47:35;20.98;;;13.55;;
51660;SDS011;37741;49.748;8.490;2024-03-08T09:50:05;20.70;;;12.75;;
51660;SDS011;37741;49.748;8.490;2024-03-08T09:52:34;16.88;;;12.75;;
51660;SDS011;37741;49.748;8.490;2024-03-08T09:55:08;19.35;;;12.95;;
51660;SDS011;37741;49.748;8.490;2024-03-08T09:57:38;19.60;;;13.15;;
51660;SDS011;37741;49.748;8.490;2024-03-08T10:00:05;17.98;;;12.60;;
51660;SDS011;37741;49.748;8.490;2024-03-08T10:02:46;18.35;;;12.77;;
51660;SDS011;37741;49.748;8.490;2024-03-08T10:05:12;18.15;;;13.45;;
51660;SDS011;37741;49.748;8.490;2024-03-08T10:07:39;17.05;;;12.43;;
51660;SDS011;37741;49.748;8.490;2024-03-08T10:10:05;17.90;;;13.13;;
51660;SDS011;37741;49.748;8.490;2024-03-08T10:12:33;17.58;;;12.73;;
51660;SDS011;37741;49.748;8.490;2024-03-08T10:14:59;16.48;;;12.98;;
51660;SDS011;37741;49.748;8.490;2024-03-08T10:17:26;18.80;;;12.45;;
51660;SDS011;37741;49.748;8.490;2024-03-08T10:19:52;17.00;;;12.95;;
51660;SDS011;37741;49.748;8.490;2024-03-08T10:22:18;17.77;;;12.38;;
51660;SDS011;37741;49.748;8.490;2024-03-08T10:24:45;19.13;;;12.30;;
51660;SDS011;37741;49.748;8.490;2024-03-08T10:27:16;18.92;;;12.38;;
51660;SDS011;37741;49.748;8.490;2024-03-08T10:29:42;19.08;;;13.15;;
51660;SDS011;37741;49.748;8.490;2024-03-08T10:32:09;17.15;;;12.82;;
51660;SDS011;37741;49.748;8.490;2024-03-08T10:34:35;15.10;;;11.52;;
51660;SDS011;37741;49.748;8.490;2024-03-08T10:37:04;16.55;;;13.00;;
51660;SDS011;37741;49.748;8.490;2024-03-08T10:39:36;17.40;;;12.30;;
51660;SDS011;37741;49.748;8.490;2024-03-08T10:42:03;19.20;;;13.13;;
51660;SDS011;37741;49.748;8.490;2024-03-08T10:47:09;15.65;;;11.75;;
51660;SDS011;37741;49.748;8.490;2024-03-08T10:49:51;17.02;;;12.57;;
51660;SDS011;37741;49.748;8.490;2024-03-08T10:52:20;16.83;;;13.18;;
51660;SDS011;37741;49.748;8.490;2024-03-08T10:54:49;17.60;;;12.50;;
51660;SDS011;37741;49.748;8.490;2024-03-08T10:57:17;17.08;;;12.55;;
51660;SDS011;37741;49.748;8.490;2024-03-08T10:59:47;16.23;;;12.65;;
51660;SDS011;37741;49.748;8.490;2024-03-08T11:02:15;15.25;;;11.65;;
51660;SDS011;37741;49.748;8.490;2024-03-08T11:04:45;16.15;;;12.05;;
51660;SDS011;37741;49.748;8.490;2024-03-08T11:07:14;15.88;;;12.05;;
51660;SDS011;37741;49.748;8.490;2024-03-08T11:09:43;18.98;;;13.23;;
51660;SDS011;37741;49.748;8.490;2024-03-08T11:15:43;17.92;;;13.20;;
51660;SDS011;37741;49.748;8.490;2024-03-08T11:18:09;17.80;;;12.73;;
51660;SDS011;37741;49.748;8.490;2024-03-08T11:20:35;20.05;;;13.82;;
51660;SDS011;37741;49.748;8.490;2024-03-08T11:23:03;17.77;;;12.57;;
51660;SDS011;37741;49.748;8.490;2024-03-08T11:28:10;18.75;;;13.15;;
51660;SDS011;37741;49.748;8.490;2024-03-08T11:31:22;20.90;;;14.00;;
51660;SDS011;37741;49.748;8.490;2024-03-08T11:33:36;15.88;;;12.38;;
51660;SDS011;37741;49.748;8.490;2024-03-08T11:36:12;17.52;;;13.18;;
51660;SDS011;37741;49.748;8.490;2024-03-08T11:38:47;22.20;;;11.98;;
51660;SDS011;37741;49.748;8.490;2024-03-08T11:41:18;18.05;;;13.77;;
51660;SDS011;37741;49.748;8.490;2024-03-08T11:43:45;21.73;;;14.00;;
51660;SDS011;37741;49.748;8.490;2024-03-08T11:46:11;16.92;;;12.95;;
51660;SDS011;37741;49.748;8.490;2024-03-08T11:48:41;16.33;;;12.27;;
51660;SDS011;37741;49.748;8.490;2024-03-08T11:51:08;17.20;;;13.18;;
51660;SDS011;37741;49.748;8.490;2024-03-08T11:53:39;15.68;;;11.70;;
51660;SDS011;37741;49.748;8.490;2024-03-08T11:56:12;16.85;;;12.15;;
51660;SDS011;37741;49.748;8.490;2024-03-08T11:58:39;16.40;;;12.48;;
51660;SDS011;37741;49.748;8.490;2024-03-08T12:01:05;18.85;;;13.57;;
51660;SDS011;37741;49.748;8.490;2024-03-08T12:03:32;17.17;;;13.07;;
51660;SDS011;37741;49.748;8.490;2024-03-08T12:05:59;18.95;;;13.43;;
51660;SDS011;37741;49.748;8.490;2024-03-08T12:08:25;16.80;;;13.45;;
51660;SDS011;37741;49.748;8.490;2024-03-08T12:10:53;17.85;;;13.38;;
51660;SDS011;37741;49.748;8.490;2024-03-08T12:13:24;17.88;;;13.40;;
51660;SDS011;37741;49.748;8.490;2024-03-08T12:15:57;17.50;;;13.52;;
51660;SDS011;37741;49.748;8.490;2024-03-08T12:18:24;18.15;;;14.13;;
51660;SDS011;37741;49.748;8.490;2024-03-08T12:21:03;17.67;;;12.55;;
51660;SDS011;37741;49.748;8.490;2024-03-08T12:23:32;19.80;;;13.52;;
51660;SDS011;37741;49.748;8.490;2024-03-08T12:26:09;18.98;;;12.90;;
51660;SDS011;37741;49.748;8.490;2024-03-08T12:28:39;18.02;;;13.25;;
51660;SDS011;37741;49.748;8.490;2024-03-08T12:31:09;16.85;;;12.50;;
51660;SDS011;37741;49.748;8.490;2024-03-08T12:33:52;17.83;;;13.43;;
51660;SDS011;37741;49.748;8.490;2024-03-08T12:36:21;18.23;;;13.45;;
51660;SDS011;37741;49.748;8.490;2024-03-08T12:38:47;16.08;;;12.48;;
51660;SDS011;37741;49.748;8.490;2024-03-08T12:41:16;19.30;;;13.60;;
51660;SDS011;37741;49.748;8.490;2024-03-08T12:43:43;16.60;;;12.98;;
51660;SDS011;37741;49.748;8.490;2024-03-08T12:46:16;18.05;;;13.10;;
51660;SDS011;37741;49.748;8.490;2024-03-08T12:48:45;16.88;;;13.10;;
51660;SDS011;37741;49.748;8.490;2024-03-08T12:51:14;20.67;;;14.10;;
51660;SDS011;37741;49.748;8.490;2024-03-08T12:53:45;19.05;;;13.73;;
51660;SDS011;37741;49.748;8.490;2024-03-08T12:56:13;16.58;;;13.38;;
51660;SDS011;37741;49.748;8.490;2024-03-08T12:58:53;17.73;;;13.32;;
51660;SDS011;37741;49.748;8.490;2024-03-08T13:01:19;18.75;;;13.45;;
51660;SDS011;37741;49.748;8.490;2024-03-08T13:03:44;17.83;;;13.40;;
51660;SDS011;37741;49.748;8.490;2024-03-08T13:06:11;18.17;;;13.63;;
51660;SDS011;37741;49.748;8.490;2024-03-08T13:08:37;16.05;;;12.77;;
51660;SDS011;37741;49.748;8.490;2024-03-08T13:11:06;15.18;;;12.07;;
51660;SDS011;37741;49.748;8.490;2024-03-08T13:13:32;16.02;;;11.80;;
51660;SDS011;37741;49.748;8.490;2024-03-08T13:16:02;18.65;;;13.25;;
51660;SDS011;37741;49.748;8.490;2024-03-08T13:18:28;17.85;;;13.15;;
51660;SDS011;37741;49.748;8.490;2024-03-08T13:20:54;16.73;;;13.02;;
51660;SDS011;37741;49.748;8.490;2024-03-08T13:23:20;15.45;;;13.05;;
51660;SDS011;37741;49.748;8.490;2024-03-08T13:25:46;17.13;;;13.13;;
51660;SDS011;37741;49.748;8.490;2024-03-08T13:28:14;16.70;;;12.88;;
51660;SDS011;37741;49.748;8.490;2024-03-08T13:30:41;16.88;;;13.35;;
51660;SDS011;37741;49.748;8.490;2024-03-08T13:33:06;20.27;;;13.98;;
51660;SDS011;37741;49.748;8.490;2024-03-08T13:35:32;16.75;;;12.52;;
51660;SDS011;37741;49.748;8.490;2024-03-08T13:37:59;17.60;;;12.40;;
51660;SDS011;37741;49.748;8.490;2024-03-08T13:40:27;16.98;;;13.32;;
51660;SDS011;37741;49.748;8.490;2024-03-08T13:42:53;17.13;;;13.02;;
51660;SDS011;37741;49.748;8.490;2024-03-08T13:45:19;17.83;;;13.30;;
51660;SDS011;37741;49.748;8.490;2024-03-08T13:47:48;15.10;;;13.13;;
51660;SDS011;37741;49.748;8.490;2024-03-08T13:50:17;16.17;;;12.57;;
51660;SDS011;37741;49.748;8.490;2024-03-08T13:52:46;17.67;;;13.18;;
51660;SDS011;37741;49.748;8.490;2024-03-08T13:55:16;16.77;;;12.63;;
51660;SDS011;37741;49.748;8.490;2024-03-08T13:57:50;15.70;;;12.15;;
51660;SDS011;37741;49.748;8.490;2024-03-08T14:00:18;16.13;;;12.80;;
51660;SDS011;37741;49.748;8.490;2024-03-08T14:02:49;19.17;;;13.60;;
51660;SDS011;37741;49.748;8.490;2024-03-08T14:05:15;16.42;;;12.63;;
51660;SDS011;37741;49.748;8.490;2024-03-08T14:07:42;15.52;;;12.30;;
51660;SDS011;37741;49.748;8.490;2024-03-08T14:10:11;17.63;;;11.65;;
51660;SDS011;37741;49.748;8.490;2024-03-08T14:12:37;17.13;;;12.98;;
51660;SDS011;37741;49.748;8.490;2024-03-08T14:15:04;16.52;;;12.43;;
51660;SDS011;37741;49.748;8.490;2024-03-08T14:17:31;14.70;;;12.02;;
51660;SDS011;37741;49.748;8.490;2024-03-08T14:19:58;14.85;;;11.95;;
51660;SDS011;37741;49.748;8.490;2024-03-08T14:22:24;16.05;;;12.27;;
51660;SDS011;37741;49.748;8.490;2024-03-08T14:24:49;17.85;;;12.65;;
51660;SDS011;37741;49.748;8.490;2024-03-08T14:27:16;15.27;;;11.10;;
51660;SDS011;37741;49.748;8.490;2024-03-08T14:29:43;15.52;;;12.05;;
51660;SDS011;37741;49.748;8.490;2024-03-08T14:32:09;15.85;;;12.18;;